createdAt,value
2023-05-09T00:08:20.043Z,96.70
2023-05-09T00:38:23.715Z,97.04
2023-05-09T01:08:41.295Z,97.68
2023-05-09T01:38:44.823Z,98.15
2023-05-09T02:08:48.465Z,97.80
2023-05-09T02:38:51.572Z,98.04
2023-05-09T03:08:54.484Z,98.87
2023-05-09T03:38:57.447Z,98.48
2023-05-09T04:09:00.664Z,98.74
2023-05-09T04:39:03.661Z,98.50
2023-05-09T05:09:06.678Z,98.27
2023-05-09T05:39:09.700Z,96.34
2023-05-09T06:09:12.628Z,95.92
2023-05-09T06:39:16.237Z,94.17
2023-05-09T07:09:19.178Z,92.73
2023-05-09T07:39:22.131Z,90.89
2023-05-09T08:09:25.225Z,88.96
2023-05-09T08:39:28.292Z,89.04
2023-05-09T09:09:33.457Z,85.81
2023-05-09T09:39:36.380Z,82.07
2023-05-09T10:09:39.650Z,82.60
2023-05-09T10:39:42.926Z,83.10
2023-05-09T11:09:51.297Z,74.47
2023-05-09T11:39:58.839Z,72.07
2023-05-09T12:10:01.982Z,73.12
2023-05-09T12:40:06.965Z,71.12
2023-05-09T13:10:13.768Z,74.10
2023-05-09T13:40:17.128Z,77.25
2023-05-09T14:10:20.699Z,79.22
2023-05-09T14:40:23.923Z,83.48
2023-05-09T15:10:26.956Z,90.46
2023-05-09T15:40:30.054Z,88.95
2023-05-09T16:10:33.195Z,91.13
2023-05-09T16:40:36.320Z,90.87
2023-05-09T17:10:41.432Z,90.95
2023-05-09T17:40:46.270Z,93.45
2023-05-09T18:10:49.286Z,95.40
2023-05-09T18:40:52.372Z,100.00
2023-05-09T19:10:55.384Z,100.00
2023-05-09T19:40:59.201Z,100.00
2023-05-09T20:11:02.258Z,100.00
2023-05-09T20:41:05.231Z,100.00
2023-05-09T21:11:08.232Z,100.00
2023-05-09T21:41:11.455Z,100.00
2023-05-09T22:11:15.115Z,100.00
2023-05-09T22:41:18.836Z,99.60
2023-05-09T23:11:21.771Z,99.61
2023-05-09T23:41:24.712Z,98.60
